Time;durP1;ratioP1;P1;durP2;ratioP2;P2;SDS_P1;SDS_P2;PMS_P1;PMS_P2;Temp;Humidity;BMP_temperature;BMP_pressure;BME280_temperature;BME280_humidity;BME280_pressure;Samples;Min_cycle;Max_cycle;Signal;HPM_P1;HPM_P2
2022/04/16 00:02:04;;;;;;;2.50;2.30;;;;;;;7.76;70.03;100988.77;106113;1277;22675;-81
2022/04/16 00:04:33;;;;;;;2.40;2.20;;;;;;;7.79;70.00;100988.45;106141;1274;24221;-77
2022/04/16 00:07:00;;;;;;;2.40;2.20;;;;;;;7.69;69.60;100990.80;106086;1274;22584;-75
2022/04/16 00:09:26;;;;;;;2.40;2.00;;;;;;;7.66;69.69;100994.27;106257;1274;22617;-78
2022/04/16 00:11:53;;;;;;;2.10;1.90;;;;;;;7.60;69.41;100994.17;106098;1274;23942;-75
2022/04/16 00:14:19;;;;;;;2.70;2.20;;;;;;;7.52;69.73;100990.40;106407;1272;23964;-79
2022/04/16 00:16:46;;;;;;;2.60;2.30;;;;;;;7.50;69.74;100993.35;106832;1271;25352;-78
2022/04/16 00:19:12;;;;;;;2.20;1.90;;;;;;;7.49;69.82;100993.33;106393;1271;25511;-78
2022/04/16 00:22:12;;;;;;;2.30;2.10;;;;;;;7.49;69.73;100996.67;106544;1269;25290;-77
2022/04/16 00:24:40;;;;;;;3.20;2.50;;;;;;;7.53;69.95;100994.27;107077;1271;25280;-76
2022/04/16 00:27:12;;;;;;;2.30;2.00;;;;;;;7.47;69.52;101006.98;106972;1271;24229;-76
2022/04/16 00:29:39;;;;;;;3.10;2.80;;;;;;;7.45;69.80;101004.48;107269;1271;22528;-76
2022/04/16 00:32:06;;;;;;;2.10;1.90;;;;;;;7.48;69.71;101007.69;107859;1271;25374;-75
2022/04/16 00:34:33;;;;;;;2.50;2.10;;;;;;;7.50;69.74;101009.30;107447;1271;22620;-75
2022/04/16 00:36:59;;;;;;;2.70;2.40;;;;;;;7.47;69.50;101010.65;107308;1271;25719;-76
2022/04/16 00:39:26;;;;;;;2.30;2.10;;;;;;;7.42;69.56;101002.34;107482;1271;25344;-77
2022/04/16 00:41:53;;;;;;;2.10;2.00;;;;;;;7.44;69.69;101010.78;107698;1271;22547;-79
2022/04/16 00:44:20;;;;;;;2.50;2.30;;;;;;;7.38;69.42;101017.02;107590;1271;24246;-79
2022/04/16 00:46:48;;;;;;;2.70;2.20;;;;;;;7.35;69.64;101014.52;107749;1271;24205;-78
2022/04/16 00:49:14;;;;;;;2.50;2.30;;;;;;;7.31;69.32;101014.13;106964;1271;22554;-77
2022/04/16 00:51:48;;;;;;;2.60;2.40;;;;;;;7.20;69.27;101015.01;107019;1271;25311;-78
2022/04/16 00:54:16;;;;;;;2.20;1.90;;;;;;;7.17;69.64;101021.09;107070;1271;22571;-77
2022/04/16 00:56:47;;;;;;;2.60;1.80;;;;;;;7.16;69.67;101021.26;107113;1271;22555;-78
2022/04/16 00:59:13;;;;;;;2.40;2.20;;;;;;;7.13;69.59;101023.14;107279;1271;22568;-76
2022/04/16 01:02:09;;;;;;;2.30;2.10;;;;;;;7.19;69.93;101027.08;106925;1277;25258;-76
2022/04/16 01:04:36;;;;;;;2.90;2.60;;;;;;;7.21;69.69;101033.06;106123;1277;22619;-80
2022/04/16 01:07:11;;;;;;;3.30;2.50;;;;;;;7.23;69.67;101037.83;105945;1277;25249;-79
2022/04/16 01:09:37;;;;;;;3.40;2.50;;;;;;;7.23;69.58;101040.98;106091;1278;24210;-79
2022/04/16 01:16:39;;;;;;;4.00;2.40;;;;;;;7.19;69.41;101051.79;106164;1277;24220;-76
2022/04/16 01:19:10;;;;;;;2.60;2.40;;;;;;;7.22;69.86;101051.13;106023;1271;22830;-79
2022/04/16 01:21:43;;;;;;;3.40;3.00;;;;;;;7.29;69.70;101048.26;106516;1269;22538;-82
2022/04/16 01:24:37;;;;;;;3.30;3.00;;;;;;;7.29;69.29;101057.39;106285;1271;25287;-80
2022/04/16 01:27:04;;;;;;;3.00;2.70;;;;;;;7.27;68.90;101052.97;106209;1272;22613;-80
2022/04/16 01:29:30;;;;;;;3.80;3.20;;;;;;;7.25;68.77;101057.83;106446;1271;22786;-80
2022/04/16 01:31:57;;;;;;;2.70;2.40;;;;;;;7.22;68.72;101060.75;106252;1271;24369;-74
2022/04/16 01:34:25;;;;;;;4.50;2.90;;;;;;;7.13;68.40;101060.45;106304;1271;22562;-78
2022/04/16 01:37:01;;;;;;;2.90;2.60;;;;;;;7.05;68.60;101065.77;106394;1271;25240;-79
2022/04/16 01:39:29;;;;;;;3.50;3.00;;;;;;;7.02;68.85;101075.69;106399;1271;22557;-78
2022/04/16 01:41:57;;;;;;;2.80;2.60;;;;;;;7.04;68.70;101078.34;106398;1271;22803;-80
2022/04/16 01:45:18;;;;;;;2.40;2.10;;;;;;;7.05;68.59;101074.68;106198;1277;24268;-80
2022/04/16 01:48:13;;;;;;;2.90;2.70;;;;;;;7.05;68.35;101077.33;105898;1280;25653;-78
2022/04/16 01:50:40;;;;;;;2.80;2.50;;;;;;;7.02;68.25;101080.41;105878;1281;22849;-78
2022/04/16 01:53:06;;;;;;;3.70;2.60;;;;;;;7.01;68.12;101081.45;105986;1281;22593;-79
2022/04/16 01:55:33;;;;;;;3.80;3.40;;;;;;;7.02;68.26;101087.77;106302;1281;25302;-79
2022/04/16 01:57:59;;;;;;;3.40;3.10;;;;;;;7.05;68.40;101087.81;106786;1281;22561;-80
2022/04/16 02:00:25;;;;;;;3.40;3.10;;;;;;;7.07;68.23;101093.45;106645;1281;22663;-78
2022/04/16 02:02:52;;;;;;;3.60;2.90;;;;;;;7.09;68.31;101091.05;106968;1277;22633;-79
2022/04/16 02:05:18;;;;;;;3.80;2.70;;;;;;;7.11;68.00;101096.85;107107;1274;22523;-79
2022/04/16 02:07:44;;;;;;;3.70;3.10;;;;;;;7.08;67.90;101094.36;107170;1271;22769;-79
2022/04/16 02:10:16;;;;;;;3.20;2.90;;;;;;;7.05;67.95;101094.65;107018;1271;22668;-76
2022/04/16 02:12:43;;;;;;;4.40;2.80;;;;;;;7.05;67.92;101100.27;106788;1271;24218;-80
2022/04/16 02:15:10;;;;;;;3.30;2.60;;;;;;;7.02;67.80;101100.39;106930;1272;22781;-76
2022/04/16 02:17:38;;;;;;;3.40;2.70;;;;;;;7.02;67.96;101103.88;107184;1271;22481;-73
2022/04/16 02:20:09;;;;;;;2.90;2.70;;;;;;;7.00;67.74;101102.61;106190;1277;25263;-75
2022/04/16 02:22:45;;;;;;;3.40;3.10;;;;;;;6.98;67.55;101105.38;106023;1277;22722;-76
2022/04/16 02:25:13;;;;;;;4.70;2.80;;;;;;;6.88;67.43;101105.58;105961;1281;22614;-77
2022/04/16 02:27:40;;;;;;;3.40;3.00;;;;;;;6.85;67.62;101108.15;106452;1278;24176;-77
2022/04/16 02:30:13;;;;;;;3.20;2.90;;;;;;;6.85;67.46;101108.33;106543;1281;22710;-79
2022/04/16 02:32:44;;;;;;;2.70;2.50;;;;;;;6.80;67.29;101114.02;106697;1278;22577;-78
2022/04/16 02:36:19;;;;;;;3.20;2.90;;;;;;;6.80;67.42;101121.54;106610;1279;22622;-78
2022/04/16 02:39:42;;;;;;;3.50;3.20;;;;;;;6.77;67.34;101124.97;106778;1271;22571;-79
2022/04/16 02:42:08;;;;;;;3.10;2.80;;;;;;;6.76;67.12;101127.79;106646;1271;25340;-79
2022/04/16 02:47:25;;;;;;;3.50;2.80;;;;;;;6.67;67.15;101136.72;106467;1271;22855;-80
2022/04/16 02:49:51;;;;;;;2.90;2.60;;;;;;;6.72;66.82;101137.50;106826;1271;22649;-76
2022/04/16 02:52:17;;;;;;;2.80;2.50;;;;;;;6.65;66.35;101140.35;106460;1271;23920;-78
2022/04/16 02:54:43;;;;;;;3.00;2.60;;;;;;;6.62;66.63;101139.94;106225;1271;22648;-74
2022/04/16 02:57:11;;;;;;;4.30;2.80;;;;;;;6.63;66.30;101144.69;106102;1271;22692;-72
2022/04/16 03:03:57;;;;;;;2.60;2.40;;;;;;;6.61;65.87;101150.59;106263;1271;22640;-72
2022/04/16 03:06:23;;;;;;;4.10;2.70;;;;;;;6.59;66.01;101157.55;106140;1271;24418;-72
2022/04/16 03:08:50;;;;;;;2.90;2.70;;;;;;;6.56;65.98;101153.46;105902;1271;25945;-70
2022/04/16 03:11:16;;;;;;;2.90;2.60;;;;;;;6.63;65.97;101162.70;105936;1271;24231;-72
2022/04/16 03:13:42;;;;;;;3.10;2.60;;;;;;;6.63;65.88;101158.15;106047;1273;22675;-71
2022/04/16 03:18:54;;;;;;;4.20;2.50;;;;;;;6.57;65.29;101165.04;106336;1271;22601;-73
2022/04/16 03:21:21;;;;;;;3.00;2.70;;;;;;;6.48;65.16;101176.93;106071;1271;25462;-75
2022/04/16 03:23:47;;;;;;;3.80;2.40;;;;;;;6.43;65.33;101185.60;106084;1271;24412;-74
2022/04/16 03:26:14;;;;;;;2.80;2.50;;;;;;;6.43;65.34;101189.09;106094;1271;25252;-74
2022/04/16 03:28:41;;;;;;;2.70;2.50;;;;;;;6.42;65.24;101191.86;106310;1271;25560;-74
2022/04/16 03:31:07;;;;;;;3.20;2.70;;;;;;;6.41;65.49;101190.61;106006;1271;25363;-74
2022/04/16 03:33:33;;;;;;;3.10;2.40;;;;;;;6.44;65.40;101192.08;106246;1270;24381;-76
2022/04/16 03:36:00;;;;;;;3.10;2.80;;;;;;;6.40;64.85;101191.30;106335;1271;22636;-74
2022/04/16 03:38:26;;;;;;;3.30;2.30;;;;;;;6.38;64.99;101193.17;106197;1271;24650;-75
2022/04/16 03:40:52;;;;;;;3.30;2.60;;;;;;;6.37;64.83;101196.66;106277;1271;22613;-74
2022/04/16 03:43:26;;;;;;;3.50;2.40;;;;;;;6.37;64.40;101197.70;106218;1271;22623;-73
2022/04/16 03:45:52;;;;;;;3.90;2.40;;;;;;;6.36;64.31;101206.96;106223;1271;23806;-72
2022/04/16 03:48:18;;;;;;;2.60;2.40;;;;;;;6.35;64.14;101209.39;106124;1271;25465;-74
2022/04/16 03:50:44;;;;;;;2.20;2.10;;;;;;;6.35;64.07;101217.09;106081;1271;25329;-74
2022/04/16 03:53:10;;;;;;;2.40;2.20;;;;;;;6.29;63.79;101220.98;106154;1271;22856;-74
2022/04/16 04:01:07;;;;;;;2.10;1.90;;;;;;;6.24;63.37;101234.67;106048;1271;22571;-75
2022/04/16 04:03:33;;;;;;;2.90;2.10;;;;;;;6.25;62.86;101237.85;106023;1271;22569;-76
2022/04/16 04:06:01;;;;;;;3.70;2.30;;;;;;;6.25;62.61;101243.45;106156;1271;24338;-75
2022/04/16 04:08:28;;;;;;;2.20;2.00;;;;;;;6.18;61.83;101246.45;106141;1271;24881;-75
2022/04/16 04:10:54;;;;;;;2.40;2.20;;;;;;;6.10;61.99;101250.64;106047;1271;24525;-72
2022/04/16 04:13:23;;;;;;;2.20;2.00;;;;;;;6.08;62.10;101253.74;106123;1271;24262;-73
2022/04/16 04:15:49;;;;;;;2.70;2.40;;;;;;;6.02;62.08;101254.27;106219;1271;22551;-72
2022/04/16 04:18:15;;;;;;;2.30;1.90;;;;;;;6.01;62.20;101259.52;105718;1277;22639;-72
2022/04/16 04:20:42;;;;;;;2.60;2.40;;;;;;;5.93;61.86;101257.73;105563;1277;25436;-73
2022/04/16 04:23:09;;;;;;;2.80;2.30;;;;;;;5.87;61.97;101260.91;105165;1281;24415;-72
2022/04/16 04:25:35;;;;;;;2.20;1.90;;;;;;;5.84;61.75;101266.62;105312;1282;22698;-71
2022/04/16 04:28:01;;;;;;;2.70;2.30;;;;;;;5.81;61.63;101268.30;105388;1280;25548;-72
2022/04/16 04:34:13;;;;;;;1.90;1.70;;;;;;;5.80;61.71;101269.30;105408;1281;25340;-72
2022/04/16 04:36:39;;;;;;;1.70;1.60;;;;;;;5.75;61.58;101281.25;105407;1278;25505;-72
2022/04/16 04:39:05;;;;;;;1.70;1.60;;;;;;;5.66;61.77;101283.46;105760;1277;24249;-74
2022/04/16 04:41:31;;;;;;;1.90;1.50;;;;;;;5.56;61.82;101283.92;106063;1271;22956;-74
2022/04/16 04:48:17;;;;;;;2.30;1.70;;;;;;;5.16;61.89;101302.95;107410;1271;22490;-79
2022/04/16 04:50:43;;;;;;;1.70;1.60;;;;;;;5.01;62.27;101311.09;106962;1271;25391;-77
2022/04/16 04:53:10;;;;;;;1.60;1.50;;;;;;;4.91;62.55;101312.20;106777;1271;25409;-76
2022/04/16 04:55:36;;;;;;;3.40;1.70;;;;;;;4.87;62.64;101319.92;107222;1271;23019;-76
2022/04/16 04:58:02;;;;;;;2.10;1.70;;;;;;;4.83;62.94;101321.74;106533;1271;25467;-75
2022/04/16 05:00:28;;;;;;;1.70;1.60;;;;;;;4.86;62.90;101325.30;106444;1271;22536;-73
2022/04/16 05:02:54;;;;;;;1.80;1.70;;;;;;;4.86;63.17;101325.50;106392;1271;25244;-73
2022/04/16 05:05:21;;;;;;;3.30;1.60;;;;;;;4.93;63.37;101324.13;106169;1271;25252;-75
2022/04/16 05:07:47;;;;;;;1.70;1.40;;;;;;;4.94;62.81;101330.44;105851;1271;458457;-75
2022/04/16 05:10:13;;;;;;;1.70;1.60;;;;;;;4.88;63.01;101336.02;106108;1271;25528;-73
2022/04/16 05:12:39;;;;;;;1.60;1.50;;;;;;;4.91;62.97;101339.80;106463;1271;25595;-71
2022/04/16 05:15:06;;;;;;;1.50;1.40;;;;;;;4.95;63.08;101341.83;106136;1271;24075;-78
2022/04/16 05:17:36;;;;;;;2.20;1.50;;;;;;;4.96;62.93;101341.49;106339;1271;25597;-79
2022/04/16 05:20:04;;;;;;;2.00;1.30;;;;;;;4.98;62.90;101344.86;106253;1271;25615;-76
2022/04/16 05:22:30;;;;;;;2.20;1.60;;;;;;;4.98;62.79;101352.20;106135;1271;24186;-79
2022/04/16 05:24:57;;;;;;;3.70;1.60;;;;;;;5.01;62.92;101358.39;106320;1271;24788;-79
2022/04/16 05:27:23;;;;;;;3.60;1.40;;;;;;;5.04;62.70;101360.56;106343;1271;23951;-79
2022/04/16 05:29:56;;;;;;;1.60;1.50;;;;;;;4.97;62.27;101367.55;106235;1272;26625;-78
2022/04/16 05:36:23;;;;;;;1.80;1.60;;;;;;;4.86;62.34;101365.98;105948;1274;22559;-79
2022/04/16 05:38:50;;;;;;;1.60;1.50;;;;;;;4.81;62.42;101367.95;105993;1274;24398;-80
2022/04/16 05:41:16;;;;;;;1.80;1.60;;;;;;;4.76;62.32;101368.30;106129;1274;24401;-80
2022/04/16 05:43:42;;;;;;;2.10;1.50;;;;;;;4.66;62.26;101372.03;106081;1276;23112;-79
2022/04/16 05:46:08;;;;;;;2.00;1.30;;;;;;;4.62;62.39;101377.13;105978;1274;23858;-79
2022/04/16 05:48:35;;;;;;;4.50;1.80;;;;;;;4.61;62.42;101368.73;105819;1274;22555;-79
2022/04/16 05:51:02;;;;;;;1.70;1.60;;;;;;;4.59;62.14;101379.66;106052;1274;22579;-82
2022/04/16 05:53:31;;;;;;;1.50;1.40;;;;;;;4.56;62.30;101386.90;106030;1274;25590;-81
2022/04/16 05:55:58;;;;;;;2.70;1.60;;;;;;;4.63;62.47;101382.77;106338;1274;22534;-84
2022/04/16 05:58:25;;;;;;;2.20;1.60;;;;;;;4.67;62.30;101383.23;106042;1274;24415;-78
2022/04/16 06:00:52;;;;;;;1.80;1.70;;;;;;;4.71;62.03;101389.62;105779;1274;22782;-77
2022/04/16 06:03:20;;;;;;;2.10;1.40;;;;;;;4.71;62.17;101383.70;106024;1274;25131;-78
2022/04/16 06:05:47;;;;;;;2.10;1.50;;;;;;;4.78;62.15;101385.66;106156;1271;23102;-85
2022/04/16 06:08:13;;;;;;;1.90;1.70;;;;;;;4.82;61.98;101389.42;106388;1271;24077;-77
2022/04/16 06:10:40;;;;;;;2.50;1.50;;;;;;;4.93;62.05;101391.52;106381;1271;24907;-78
2022/04/16 06:13:09;;;;;;;3.60;2.70;;;;;;;5.03;61.69;101394.23;106052;1271;22467;-77
2022/04/16 06:15:35;;;;;;;1.70;1.60;;;;;;;5.05;61.77;101391.86;106327;1270;22809;-76
2022/04/16 06:18:01;;;;;;;1.80;1.50;;;;;;;5.13;61.88;101395.93;106283;1271;25317;-78
2022/04/16 06:20:28;;;;;;;1.40;1.30;;;;;;;5.20;61.64;101398.23;106226;1271;24093;-79
2022/04/16 06:27:13;;;;;;;1.50;1.40;;;;;;;5.29;60.23;101405.65;105949;1275;25251;-76
2022/04/16 06:29:39;;;;;;;2.70;2.00;;;;;;;5.30;60.27;101403.59;105853;1276;24238;-83
2022/04/16 06:32:06;;;;;;;2.20;1.90;;;;;;;5.36;60.14;101402.36;106092;1277;22873;-76
2022/04/16 06:34:32;;;;;;;1.80;1.70;;;;;;;5.40;59.66;101401.07;106038;1275;25376;-79
2022/04/16 06:36:59;;;;;;;1.60;1.40;;;;;;;5.44;59.76;101412.90;105462;1282;24525;-78
2022/04/16 06:39:26;;;;;;;1.40;1.30;;;;;;;5.46;59.34;101406.48;105790;1281;23253;-77
2022/04/16 06:41:52;;;;;;;2.20;1.50;;;;;;;5.48;59.47;101407.05;105950;1276;22838;-83
2022/04/16 06:44:20;;;;;;;1.90;1.80;;;;;;;5.47;59.28;101409.12;106089;1276;25316;-75
2022/04/16 06:46:46;;;;;;;3.50;1.90;;;;;;;5.53;59.22;101417.70;106023;1276;22578;-81
2022/04/16 06:49:13;;;;;;;1.80;1.60;;;;;;;5.60;59.12;101420.32;106451;1276;22623;-79
2022/04/16 06:51:39;;;;;;;1.80;1.60;;;;;;;5.68;58.98;101424.20;106241;1276;22732;-74
2022/04/16 06:54:05;;;;;;;2.00;1.50;;;;;;;5.75;58.70;101417.58;106016;1276;25374;-80
2022/04/16 06:56:31;;;;;;;1.80;1.30;;;;;;;5.84;58.49;101418.19;106401;1271;22613;-79
2022/04/16 06:58:58;;;;;;;2.50;1.70;;;;;;;5.91;58.26;101418.70;106354;1271;24389;-81
2022/04/16 07:01:24;;;;;;;1.90;1.70;;;;;;;5.91;57.92;101426.58;106343;1271;22695;-81
2022/04/16 07:03:51;;;;;;;2.40;1.60;;;;;;;5.90;57.78;101429.02;106552;1271;26558;-85
2022/04/16 07:06:17;;;;;;;1.90;1.60;;;;;;;5.95;57.57;101433.15;106521;1271;22583;-80
2022/04/16 07:08:44;;;;;;;3.00;1.70;;;;;;;5.98;57.36;101434.98;106224;1271;23246;-82
2022/04/16 07:11:10;;;;;;;1.80;1.70;;;;;;;5.99;57.52;101439.91;106227;1271;22541;-82
2022/04/16 07:13:36;;;;;;;1.70;1.40;;;;;;;5.98;57.35;101441.45;105876;1277;22769;-86
2022/04/16 07:16:03;;;;;;;1.90;1.60;;;;;;;5.94;57.06;101443.27;105837;1277;22549;-81
2022/04/16 07:18:29;;;;;;;4.20;1.60;;;;;;;6.04;57.66;101451.77;106025;1277;24383;-78
2022/04/16 07:20:56;;;;;;;1.90;1.70;;;;;;;6.19;57.75;101456.58;105813;1277;22595;-74
2022/04/16 07:23:22;;;;;;;2.30;1.50;;;;;;;6.37;57.69;101453.34;105753;1276;22584;-73
2022/04/16 07:25:48;;;;;;;1.60;1.50;;;;;;;6.53;57.62;101448.48;105976;1277;24189;-74
2022/04/16 07:28:21;;;;;;;3.00;1.90;;;;;;;6.63;57.09;101456.94;105881;1277;22624;-72
2022/04/16 07:30:49;;;;;;;2.30;1.60;;;;;;;6.74;56.82;101461.41;105741;1276;26523;-80
2022/04/16 07:33:15;;;;;;;2.40;1.50;;;;;;;6.84;56.48;101456.21;106057;1271;22711;-76
2022/04/16 07:35:42;;;;;;;1.60;1.50;;;;;;;6.90;56.00;101457.03;106063;1271;25257;-69
2022/04/16 07:38:09;;;;;;;2.90;1.50;;;;;;;6.97;55.87;101462.30;106310;1271;22544;-70
2022/04/16 07:40:35;;;;;;;1.60;1.50;;;;;;;7.10;55.99;101464.15;106207;1271;22554;-69
2022/04/16 07:43:01;;;;;;;2.70;1.60;;;;;;;7.15;56.11;101467.77;106494;1271;24513;-73
2022/04/16 07:45:28;;;;;;;1.80;1.70;;;;;;;7.13;55.42;101470.54;105981;1277;22560;-70
2022/04/16 07:47:55;;;;;;;4.80;2.10;;;;;;;7.12;54.99;101468.93;106023;1277;22588;-77
2022/04/16 07:50:22;;;;;;;1.50;1.40;;;;;;;7.10;54.74;101475.71;105820;1276;22705;-84
2022/04/16 07:52:48;;;;;;;4.30;1.20;;;;;;;7.09;54.66;101471.14;106126;1277;23283;-78
2022/04/16 07:55:15;;;;;;;2.10;1.40;;;;;;;7.09;54.31;101478.66;106462;1276;25411;-82
2022/04/16 07:57:42;;;;;;;1.50;1.40;;;;;;;7.10;54.15;101482.55;106732;1277;25251;-79
2022/04/16 08:00:10;;;;;;;1.70;1.50;;;;;;;7.19;54.03;101488.88;106234;1276;22592;-77
2022/04/16 08:02:39;;;;;;;1.50;1.40;;;;;;;7.21;53.51;101479.11;106733;1279;22558;-77
2022/04/16 08:05:07;;;;;;;1.30;1.20;;;;;;;7.20;53.30;101485.40;106748;1276;22614;-79
2022/04/16 08:07:33;;;;;;;1.90;1.50;;;;;;;7.19;53.09;101486.44;106105;1277;25253;-74
2022/04/16 08:10:00;;;;;;;1.90;1.60;;;;;;;7.21;53.29;101490.32;106216;1277;22562;-79
2022/04/16 08:12:26;;;;;;;3.50;1.80;;;;;;;7.21;52.69;101483.84;106024;1277;22573;-74
2022/04/16 08:14:53;;;;;;;2.40;2.20;;;;;;;7.23;52.81;101482.64;105427;1282;22700;-74
2022/04/16 08:17:19;;;;;;;1.40;1.30;;;;;;;7.30;52.72;101484.56;105292;1282;22546;-74
2022/04/16 08:19:46;;;;;;;1.60;1.50;;;;;;;7.40;52.90;101489.51;105200;1284;25296;-74
2022/04/16 08:22:17;;;;;;;2.50;1.80;;;;;;;7.55;52.64;101490.35;105383;1283;22559;-75
2022/04/16 08:24:54;;;;;;;2.10;1.60;;;;;;;7.73;52.27;101490.02;105598;1281;25480;-76
2022/04/16 08:27:21;;;;;;;1.60;1.50;;;;;;;7.92;51.95;101483.38;105629;1281;22706;-74
2022/04/16 08:29:47;;;;;;;1.70;1.60;;;;;;;8.04;51.57;101481.14;105578;1280;25442;-75
2022/04/16 08:32:14;;;;;;;2.30;1.60;;;;;;;8.14;51.42;101485.55;105751;1277;22630;-73
2022/04/16 08:34:49;;;;;;;2.00;1.80;;;;;;;8.30;50.85;101487.42;105873;1276;25246;-76
2022/04/16 08:37:16;;;;;;;2.00;1.50;;;;;;;8.44;50.70;101486.78;106061;1271;25560;-75
2022/04/16 08:39:42;;;;;;;2.00;1.60;;;;;;;8.63;50.54;101485.02;106107;1271;25366;-76
2022/04/16 08:42:08;;;;;;;1.60;1.50;;;;;;;8.89;50.51;101486.14;106540;1271;25445;-76
2022/04/16 08:44:38;;;;;;;3.00;1.40;;;;;;;9.17;50.25;101490.23;106241;1271;25518;-78
2022/04/16 08:47:06;;;;;;;1.60;1.50;;;;;;;9.45;49.40;101494.48;106508;1271;25422;-77
2022/04/16 08:49:34;;;;;;;1.40;1.30;;;;;;;9.66;48.86;101490.17;106577;1271;24215;-74
2022/04/16 08:52:03;;;;;;;1.90;1.60;;;;;;;9.85;48.51;101501.48;106428;1271;25911;-73
2022/04/16 08:54:30;;;;;;;2.00;1.40;;;;;;;9.84;47.70;101506.23;106381;1271;22538;-75
2022/04/16 08:56:56;;;;;;;2.50;1.70;;;;;;;9.72;47.64;101505.02;106389;1270;23270;-78
2022/04/16 08:59:22;;;;;;;4.90;1.50;;;;;;;9.66;47.48;101506.18;106323;1271;25933;-75
2022/04/16 09:01:49;;;;;;;2.50;1.50;;;;;;;9.57;47.19;101507.48;106346;1271;23971;-72
2022/04/16 09:04:23;;;;;;;2.10;1.90;;;;;;;9.55;47.47;101504.45;106311;1271;22530;-75
2022/04/16 09:07:01;;;;;;;1.20;1.20;;;;;;;9.68;47.57;101501.11;106369;1270;22845;-71
2022/04/16 09:09:28;;;;;;;1.60;1.50;;;;;;;9.75;46.77;101504.36;106382;1269;25236;-73
2022/04/16 09:11:56;;;;;;;1.40;1.20;;;;;;;9.61;46.65;101501.55;106644;1270;22521;-77
2022/04/16 09:14:44;;;;;;;1.60;1.30;;;;;;;9.55;46.45;101507.27;106548;1271;25522;-74
2022/04/16 09:17:16;;;;;;;1.30;1.20;;;;;;;9.61;46.79;101512.27;106408;1271;22541;-75
2022/04/16 09:19:43;;;;;;;3.60;1.50;;;;;;;9.66;46.81;101507.77;106324;1271;22767;-75
2022/04/16 09:22:09;;;;;;;1.30;1.20;;;;;;;9.75;47.01;101508.92;106464;1271;23987;-76
2022/04/16 09:24:48;;;;;;;1.40;1.30;;;;;;;9.95;46.98;101510.05;106230;1271;24210;-76
2022/04/16 09:27:15;;;;;;;4.00;1.40;;;;;;;10.04;46.02;101513.14;106317;1271;26487;-76
2022/04/16 09:29:43;;;;;;;2.20;1.40;;;;;;;9.90;45.58;101507.88;106267;1271;22605;-72
2022/04/16 09:32:24;;;;;;;1.70;1.30;;;;;;;9.86;45.81;101503.96;106547;1271;22616;-70
2022/04/16 09:34:53;;;;;;;1.20;1.10;;;;;;;10.01;45.15;101511.52;106486;1271;23954;-74
2022/04/16 09:37:24;;;;;;;2.60;1.10;;;;;;;10.25;45.10;101515.48;106346;1271;25200;-73
2022/04/16 09:39:53;;;;;;;1.40;1.20;;;;;;;10.53;45.19;101511.38;106469;1271;25450;-75
2022/04/16 09:42:27;;;;;;;1.40;1.30;;;;;;;10.85;44.68;101512.52;106378;1271;22800;-76
2022/04/16 09:44:53;;;;;;;1.30;1.20;;;;;;;11.20;43.95;101509.59;106356;1271;23385;-76
2022/04/16 09:47:23;;;;;;;1.30;1.20;;;;;;;11.56;43.50;101510.13;106326;1271;22543;-75
2022/04/16 09:49:52;;;;;;;2.70;1.00;;;;;;;11.82;42.56;101508.30;106476;1270;25524;-75
2022/04/16 09:52:22;;;;;;;1.20;1.10;;;;;;;12.12;42.43;101508.05;106434;1271;22589;-76
2022/04/16 09:54:50;;;;;;;1.20;1.10;;;;;;;12.19;41.13;101502.62;106218;1271;22652;-72
2022/04/16 09:57:21;;;;;;;2.10;1.10;;;;;;;12.08;40.86;101513.88;106381;1271;26673;-74
2022/04/16 09:59:52;;;;;;;1.20;1.10;;;;;;;11.90;40.88;101520.69;105815;1276;24243;-80
2022/04/16 10:02:19;;;;;;;1.50;1.40;;;;;;;11.73;40.84;101518.84;106565;1276;22552;-81
2022/04/16 10:04:46;;;;;;;2.00;1.40;;;;;;;11.53;40.81;101525.46;106196;1276;22578;-78
2022/04/16 10:07:16;;;;;;;1.60;1.30;;;;;;;11.31;40.85;101524.28;106045;1277;26781;-79
2022/04/16 10:09:45;;;;;;;1.40;1.20;;;;;;;11.19;41.28;101527.73;106063;1277;22806;-80
2022/04/16 10:14:51;;;;;;;2.80;1.20;;;;;;;11.04;41.06;101522.70;106144;1277;25635;-81
2022/04/16 10:17:39;;;;;;;1.40;1.30;;;;;;;11.20;40.97;101519.98;106082;1277;25375;-79
2022/04/16 10:20:08;;;;;;;3.30;1.60;;;;;;;11.53;40.90;101519.11;105999;1277;23039;-82
2022/04/16 10:22:34;;;;;;;0.70;0.70;;;;;;;11.91;40.52;101512.38;106090;1277;22538;-82
2022/04/16 10:25:01;;;;;;;1.20;1.20;;;;;;;12.26;40.25;101508.10;106339;1271;22559;-80
2022/04/16 10:27:30;;;;;;;2.30;1.00;;;;;;;12.61;40.07;101503.19;106443;1271;24214;-80
2022/04/16 10:30:09;;;;;;;2.70;1.00;;;;;;;12.79;38.50;101504.25;106456;1271;26489;-81
2022/04/16 10:32:40;;;;;;;1.50;1.20;;;;;;;13.01;37.85;101507.59;106244;1271;22601;-82
2022/04/16 10:35:16;;;;;;;1.80;1.10;;;;;;;13.23;37.73;101505.95;106520;1271;22652;-80
2022/04/16 10:37:45;;;;;;;1.20;1.10;;;;;;;13.62;37.39;101502.68;106299;1271;22546;-80
2022/04/16 10:40:25;;;;;;;1.60;1.10;;;;;;;13.97;37.13;101503.40;106532;1270;26484;-79
2022/04/16 10:42:59;;;;;;;3.30;1.40;;;;;;;14.04;37.03;101499.65;106436;1271;26484;-81
2022/04/16 10:45:26;;;;;;;2.30;1.40;;;;;;;14.16;36.87;101490.02;106361;1271;23274;-86
2022/04/16 10:47:54;;;;;;;4.30;1.40;;;;;;;14.09;36.49;101498.02;106221;1276;22704;-91
2022/04/16 10:50:22;;;;;;;1.10;1.00;;;;;;;13.81;35.89;101505.09;106599;1277;26701;-85
2022/04/16 10:53:02;;;;;;;1.40;1.30;;;;;;;13.34;35.76;101510.00;105975;1277;24718;-81
2022/04/16 10:55:32;;;;;;;2.70;1.00;;;;;;;13.20;36.68;101512.33;105685;1277;22778;-80
2022/04/16 10:58:00;;;;;;;3.00;1.30;;;;;;;13.12;36.58;101508.81;105974;1277;24553;-81
2022/04/16 11:00:44;;;;;;;1.20;1.10;;;;;;;13.17;36.88;101509.85;105657;1281;22732;-81
2022/04/16 11:03:18;;;;;;;1.50;1.00;;;;;;;13.15;36.45;101505.62;105671;1283;25263;-80
2022/04/16 11:05:45;;;;;;;1.20;1.00;;;;;;;13.13;36.50;101504.73;106688;1281;23998;-80
2022/04/16 11:08:14;;;;;;;1.90;0.90;;;;;;;12.93;36.00;101513.42;106962;1281;23144;-78
2022/04/16 11:10:42;;;;;;;1.00;1.00;;;;;;;12.62;35.47;101512.55;107018;1281;24381;-78
2022/04/16 11:13:11;;;;;;;1.10;1.00;;;;;;;12.82;35.91;101515.20;107678;1276;25364;-79
2022/04/16 11:15:37;;;;;;;1.90;0.90;;;;;;;13.17;35.45;101514.81;107547;1276;25387;-77
2022/04/16 11:18:04;;;;;;;2.10;0.90;;;;;;;13.09;34.88;101515.17;106742;1276;22710;-83
2022/04/16 11:20:30;;;;;;;1.30;1.20;;;;;;;13.03;35.37;101498.74;106199;1276;25333;-77
2022/04/16 11:22:58;;;;;;;2.60;1.30;;;;;;;12.92;35.13;101510.96;106076;1276;25208;-79
2022/04/16 11:25:26;;;;;;;1.10;1.00;;;;;;;12.87;35.26;101523.52;106345;1271;22563;-79
2022/04/16 11:36:12;;;;;;;1.20;0.90;;;;;;;12.69;35.25;101527.93;106339;1271;24269;-82
2022/04/16 11:38:42;;;;;;;1.00;1.00;;;;;;;12.88;35.14;101527.93;106314;1271;25926;-78
2022/04/16 11:41:10;;;;;;;2.80;2.10;;;;;;;13.27;35.16;101525.58;106478;1271;26895;-78
2022/04/16 11:47:50;;;;;;;1.80;1.00;;;;;;;14.19;34.10;101525.42;106190;1270;22675;-79
2022/04/16 11:50:18;;;;;;;2.30;0.90;;;;;;;14.54;34.19;101518.45;106266;1271;26536;-79
2022/04/16 11:52:52;;;;;;;1.10;0.90;;;;;;;14.81;33.76;101521.29;106239;1271;24794;-78
2022/04/16 11:55:22;;;;;;;3.00;1.00;;;;;;;14.69;33.54;101525.98;106370;1271;24218;-77
2022/04/16 11:57:53;;;;;;;2.90;1.00;;;;;;;14.75;32.34;101525.91;106646;1271;24217;-79
2022/04/16 12:00:21;;;;;;;1.00;0.80;;;;;;;15.03;32.35;101525.86;106440;1269;23195;-82
2022/04/16 12:02:54;;;;;;;1.70;1.00;;;;;;;14.99;32.38;101525.73;106172;1271;24088;-77
2022/04/16 12:05:29;;;;;;;1.30;1.10;;;;;;;14.83;31.94;101524.45;106127;1274;24099;-80
2022/04/16 12:07:56;;;;;;;1.30;1.20;;;;;;;14.70;31.77;101532.34;106208;1271;24023;-79
2022/04/16 12:10:24;;;;;;;2.10;1.10;;;;;;;14.61;32.19;101529.58;106283;1271;22548;-78
2022/04/16 12:12:52;;;;;;;1.10;1.00;;;;;;;14.59;31.93;101533.66;106238;1271;22467;-77
2022/04/16 12:15:22;;;;;;;4.60;1.00;;;;;;;14.27;31.89;101535.84;106215;1271;24286;-78
2022/04/16 12:17:50;;;;;;;1.60;1.00;;;;;;;14.19;31.59;101533.58;106216;1271;25326;-76
2022/04/16 12:20:18;;;;;;;2.70;1.10;;;;;;;14.50;32.00;101529.83;106674;1271;22767;-85
2022/04/16 12:26:58;;;;;;;1.00;1.00;;;;;;;15.50;31.39;101537.64;106162;1274;22998;-77
2022/04/16 12:29:29;;;;;;;1.30;1.10;;;;;;;15.91;31.26;101535.02;106262;1271;24387;-78